Time,TemperatureF,DewpointF,PressureIn,WindDirection,WindDirectionDegrees,WindSpeedMPH,WindSpeedGustMPH,Humidity,HourlyPrecipIn,Conditions,Clouds,dailyrainin,SoftwareType,DateUTC
2013-06-25 00:05:00,69.9,65.2,29.98,West,265,0.0,1.0,85,0.00,,,0.00,Wunderground v.1.15,2013-06-25 04:05:00,
2013-06-25 00:15:00,69.7,65.0,29.98,West,265,0.0,1.0,85,0.00,,,0.00,Wunderground v.1.15,2013-06-25 04:15:00,
2013-06-25 00:20:00,69.7,65.3,29.98,West,266,0.0,1.0,86,0.00,,,0.00,Wunderground v.1.15,2013-06-25 04:20:00,
2013-06-25 00:25:00,69.5,65.1,29.98,West,266,0.0,1.0,86,0.00,,,0.00,Wunderground v.1.15,2013-06-25 04:25:00,
2013-06-25 00:31:00,69.5,65.1,29.98,West,266,0.0,1.0,86,0.00,,,0.00,Wunderground v.1.15,2013-06-25 04:31:00,
2013-06-25 00:35:00,69.4,65.0,29.98,West,266,0.0,1.0,86,0.00,,,0.00,Wunderground v.1.15,2013-06-25 04:35:00,
2013-06-25 00:41:00,69.3,65.3,29.97,West,265,0.0,1.0,87,0.00,,,0.00,Wunderground v.1.15,2013-06-25 04:41:00,
2013-06-25 00:51:00,69.0,65.0,29.97,West,266,0.0,1.0,87,0.00,,,0.00,Wunderground v.1.15,2013-06-25 04:51:00,
2013-06-25 01:00:00,68.8,65.1,29.97,West,266,0.0,1.0,88,0.00,,,0.00,Wunderground v.1.15,2013-06-25 05:00:00,
2013-06-25 01:05:00,68.8,65.1,29.97,West,265,0.0,1.0,88,0.00,,,0.00,Wunderground v.1.15,2013-06-25 05:05:00,
2013-06-25 01:15:00,68.6,64.9,29.97,West,265,0.0,1.0,88,0.00,,,0.00,Wunderground v.1.15,2013-06-25 05:15:00,
2013-06-25 01:20:00,68.6,64.9,29.97,West,266,0.0,1.0,88,0.00,,,0.00,Wunderground v.1.15,2013-06-25 05:20:00,
2013-06-25 01:30:00,68.5,64.8,29.96,West,266,0.0,1.0,88,0.00,,,0.00,Wunderground v.1.15,2013-06-25 05:30:00,
2013-06-25 01:36:00,68.4,64.7,29.95,West,266,0.0,1.0,88,0.00,,,0.00,Wunderground v.1.15,2013-06-25 05:36:00,
2013-06-25 01:45:00,68.3,64.6,29.95,West,265,0.0,1.0,88,0.00,,,0.00,Wunderground v.1.15,2013-06-25 05:45:00,
2013-06-25 01:50:00,68.2,64.8,29.95,West,266,0.0,1.0,89,0.00,,,0.00,Wunderground v.1.15,2013-06-25 05:50:00,
2013-06-25 02:00:00,68.1,64.7,29.96,West,265,0.0,1.0,89,0.00,,,0.00,Wunderground v.1.15,2013-06-25 06:00:00,
2013-06-25 02:05:00,68.1,64.7,29.96,West,266,0.0,1.0,89,0.00,,,0.00,Wunderground v.1.15,2013-06-25 06:05:00,
2013-06-25 02:16:00,67.9,64.9,29.96,West,265,0.0,1.0,90,0.00,,,0.00,Wunderground v.1.15,2013-06-25 06:16:00,
2013-06-25 02:26:00,67.8,64.8,29.96,West,266,0.0,1.0,90,0.00,,,0.00,Wunderground v.1.15,2013-06-25 06:26:00,
2013-06-25 02:35:00,67.6,64.6,29.96,West,266,0.0,1.0,90,0.00,,,0.00,Wunderground v.1.15,2013-06-25 06:35:00,
2013-06-25 02:45:00,67.3,64.6,29.96,West,266,0.0,1.0,91,0.00,,,0.00,Wunderground v.1.15,2013-06-25 06:45:00,
2013-06-25 02:50:00,67.2,64.5,29.95,West,266,0.0,1.0,91,0.00,,,0.00,Wunderground v.1.15,2013-06-25 06:50:00,
2013-06-25 03:01:00,67.0,64.6,29.95,West,266,0.0,1.0,92,0.00,,,0.00,Wunderground v.1.15,2013-06-25 07:01:00,
2013-06-25 03:06:00,66.9,64.5,29.95,West,266,0.0,1.0,92,0.00,,,0.00,Wunderground v.1.15,2013-06-25 07:06:00,
2013-06-25 03:15:00,66.7,64.3,29.95,West,265,0.0,1.0,92,0.00,,,0.00,Wunderground v.1.15,2013-06-25 07:15:00,
2013-06-25 03:20:00,66.7,64.6,29.95,West,265,0.0,1.0,93,0.00,,,0.00,Wunderground v.1.15,2013-06-25 07:20:00,
2013-06-25 03:30:00,66.6,64.5,29.94,West,265,0.0,1.0,93,0.00,,,0.00,Wunderground v.1.15,2013-06-25 07:30:00,
2013-06-25 03:35:00,66.5,64.4,29.94,West,266,0.0,1.0,93,0.00,,,0.00,Wunderground v.1.15,2013-06-25 07:35:00,
2013-06-25 03:46:00,66.3,64.2,29.94,West,266,0.0,1.0,93,0.00,,,0.00,Wunderground v.1.15,2013-06-25 07:46:00,
2013-06-25 03:56:00,66.3,64.5,29.95,West,266,0.0,1.0,94,0.00,,,0.00,Wunderground v.1.15,2013-06-25 07:56:00,
2013-06-25 04:05:00,66.1,64.3,29.95,West,265,0.0,1.0,94,0.00,,,0.00,Wunderground v.1.15,2013-06-25 08:05:00,
2013-06-25 04:15:00,66.1,64.3,29.94,West,265,0.0,1.0,94,0.00,,,0.00,Wunderground v.1.15,2013-06-25 08:15:00,
2013-06-25 04:20:00,66.1,64.3,29.94,West,265,0.0,1.0,94,0.00,,,0.00,Wunderground v.1.15,2013-06-25 08:20:00,
2013-06-25 04:30:00,66.2,64.4,29.94,West,265,0.0,1.0,94,0.00,,,0.00,Wunderground v.1.15,2013-06-25 08:30:00,
2013-06-25 04:36:00,66.2,64.4,29.94,West,266,0.0,1.0,94,0.00,,,0.00,Wunderground v.1.15,2013-06-25 08:36:00,
2013-06-25 04:45:00,66.2,64.1,29.94,West,265,0.0,1.0,93,0.00,,,0.00,Wunderground v.1.15,2013-06-25 08:45:00,
2013-06-25 04:51:00,66.1,64.0,29.94,West,266,0.0,1.0,93,0.00,,,0.00,Wunderground v.1.15,2013-06-25 08:51:00,
2013-06-25 05:00:00,66.1,64.0,29.95,West,265,0.0,1.0,93,0.00,,,0.00,Wunderground v.1.15,2013-06-25 09:00:00,
2013-06-25 05:10:00,66.3,64.2,29.94,West,266,0.0,1.0,93,0.00,,,0.00,Wunderground v.1.15,2013-06-25 09:10:00,
2013-06-25 05:16:00,66.4,64.3,29.94,West,266,0.0,1.0,93,0.00,,,0.00,Wunderground v.1.15,2013-06-25 09:16:00,
2013-06-25 05:26:00,66.5,64.4,29.94,West,266,0.0,1.0,93,0.00,,,0.00,Wunderground v.1.15,2013-06-25 09:26:00,
2013-06-25 05:35:00,66.5,64.7,29.94,West,266,0.0,1.0,94,0.00,,,0.00,Wunderground v.1.15,2013-06-25 09:35:00,
2013-06-25 05:45:00,66.8,64.7,29.94,West,266,0.0,1.0,93,0.00,,,0.00,Wunderground v.1.15,2013-06-25 09:45:00,
2013-06-25 05:50:00,66.9,65.1,29.94,West,266,0.0,1.0,94,0.00,,,0.00,Wunderground v.1.15,2013-06-25 09:50:00,
2013-06-25 06:00:00,67.5,65.4,29.94,West,266,0.0,1.0,93,0.00,,,0.00,Wunderground v.1.15,2013-06-25 10:00:00,
2013-06-25 06:11:00,67.9,65.8,29.94,West,266,0.0,1.0,93,0.00,,,0.00,Wunderground v.1.15,2013-06-25 10:11:00,
2013-06-25 06:21:00,68.1,66.0,29.94,West,266,0.0,1.0,93,0.00,,,0.00,Wunderground v.1.15,2013-06-25 10:21:00,
2013-06-25 06:30:00,68.5,66.1,29.94,West,266,0.0,1.0,92,0.00,,,0.00,Wunderground v.1.15,2013-06-25 10:30:00,
2013-06-25 06:35:00,68.8,66.4,29.94,West,266,0.0,1.0,92,0.00,,,0.00,Wunderground v.1.15,2013-06-25 10:35:00,
2013-06-25 06:45:00,69.4,66.7,29.94,NE,47,0.0,1.0,91,0.00,,,0.00,Wunderground v.1.15,2013-06-25 10:45:00,
2013-06-25 06:50:00,69.7,67.0,29.94,NE,48,0.0,1.0,91,0.00,,,0.00,Wunderground v.1.15,2013-06-25 10:50:00,
2013-06-25 07:01:00,70.2,67.4,29.94,NE,49,0.0,1.0,91,0.00,,,0.00,Wunderground v.1.15,2013-06-25 11:01:00,
2013-06-25 07:10:00,70.9,67.8,29.94,ESE,119,0.0,1.0,90,0.00,,,0.00,Wunderground v.1.15,2013-06-25 11:10:00,
2013-06-25 07:20:00,71.5,68.1,29.94,ESE,119,0.0,1.0,89,0.00,,,0.00,Wunderground v.1.15,2013-06-25 11:20:00,
2013-06-25 07:30:00,72.2,68.4,29.94,ESE,118,0.0,1.0,88,0.00,,,0.00,Wunderground v.1.15,2013-06-25 11:30:00,
2013-06-25 07:35:00,72.4,68.6,29.94,ESE,118,0.0,1.0,88,0.00,,,0.00,Wunderground v.1.15,2013-06-25 11:35:00,
2013-06-25 07:46:00,72.8,68.7,29.94,ESE,118,0.0,1.0,87,0.00,,,0.00,Wunderground v.1.15,2013-06-25 11:46:00,
2013-06-25 07:56:00,73.3,68.9,29.94,ESE,118,0.0,1.0,86,0.00,,,0.00,Wunderground v.1.15,2013-06-25 11:56:00,
2013-06-25 08:06:00,73.8,69.3,29.94,ESE,119,0.0,1.0,86,0.00,,,0.00,Wunderground v.1.15,2013-06-25 12:06:00,
2013-06-25 08:15:00,74.4,69.9,29.94,NNE,20,0.0,1.0,86,0.00,,,0.00,Wunderground v.1.15,2013-06-25 12:15:00,
2013-06-25 08:20:00,74.7,69.9,29.93,NNE,20,0.0,1.0,85,0.00,,,0.00,Wunderground v.1.15,2013-06-25 12:20:00,
2013-06-25 08:30:00,75.4,70.2,29.93,NNE,20,0.0,1.0,84,0.00,,,0.00,Wunderground v.1.15,2013-06-25 12:30:00,
2013-06-25 08:35:00,75.8,70.3,29.93,East,98,0.0,1.0,83,0.00,,,0.00,Wunderground v.1.15,2013-06-25 12:35:00,
2013-06-25 08:41:00,76.2,70.7,29.93,East,98,0.0,1.0,83,0.00,,,0.00,Wunderground v.1.15,2013-06-25 12:41:00,
2013-06-25 08:50:00,76.9,71.0,29.93,East,98,0.0,1.0,82,0.00,,,0.00,Wunderground v.1.15,2013-06-25 12:50:00,
2013-06-25 09:00:00,77.4,70.7,29.93,SSE,166,0.0,1.0,80,0.00,,,0.00,Wunderground v.1.15,2013-06-25 13:00:00,
2013-06-25 09:05:00,77.7,71.0,29.93,NW,322,1.0,1.0,80,0.00,,,0.00,Wunderground v.1.15,2013-06-25 13:05:00,
2013-06-25 09:16:00,78.4,71.3,29.93,SE,128,0.0,1.0,79,0.00,,,0.00,Wunderground v.1.15,2013-06-25 13:16:00,
2013-06-25 09:26:00,79.0,71.2,29.93,NNE,25,0.0,2.0,77,0.00,,,0.00,Wunderground v.1.15,2013-06-25 13:26:00,
2013-06-25 09:36:00,79.7,71.8,29.93,SW,217,0.0,1.0,77,0.00,,,0.00,Wunderground v.1.15,2013-06-25 13:36:00,
2013-06-25 09:45:00,80.3,72.0,29.93,SW,233,0.0,1.0,76,0.00,,,0.00,Wunderground v.1.15,2013-06-25 13:45:00,
2013-06-25 09:50:00,80.6,71.1,29.92,SE,134,0.0,1.0,73,0.00,,,0.00,Wunderground v.1.15,2013-06-25 13:50:00,
2013-06-25 10:00:00,81.0,71.5,29.92,ENE,63,1.0,1.0,73,0.00,,,0.00,Wunderground v.1.15,2013-06-25 14:00:00,
2013-06-25 10:05:00,81.3,71.8,29.92,SSE,147,0.0,1.0,73,0.00,,,0.00,Wunderground v.1.15,2013-06-25 14:05:00,
2013-06-25 10:10:00,81.7,72.2,29.92,SW,233,0.0,1.0,73,0.00,,,0.00,Wunderground v.1.15,2013-06-25 14:10:00,
2013-06-25 10:20:00,82.1,72.2,29.92,NNE,23,0.0,1.0,72,0.00,,,0.00,Wunderground v.1.15,2013-06-25 14:20:00,
2013-06-25 10:30:00,82.4,72.5,29.92,NNW,330,0.0,1.0,72,0.00,,,0.00,Wunderground v.1.15,2013-06-25 14:30:00,
2013-06-25 10:35:00,82.9,72.9,29.92,NNW,335,0.0,2.0,72,0.00,,,0.00,Wunderground v.1.15,2013-06-25 14:35:00,
2013-06-25 10:46:00,83.4,72.2,29.92,NNE,32,1.0,1.0,69,0.00,,,0.00,Wunderground v.1.15,2013-06-25 14:46:00,
2013-06-25 10:56:00,83.4,73.0,29.92,NW,314,1.0,1.0,71,0.00,,,0.00,Wunderground v.1.15,2013-06-25 14:56:00,
2013-06-25 11:06:00,83.2,73.2,29.92,NNE,18,0.0,1.0,72,0.00,,,0.00,Wunderground v.1.15,2013-06-25 15:06:00,
2013-06-25 11:15:00,83.8,73.8,29.92,NE,53,0.0,1.0,72,0.00,,,0.00,Wunderground v.1.15,2013-06-25 15:15:00,
2013-06-25 11:20:00,83.9,73.9,29.92,NNE,12,1.0,1.0,72,0.00,,,0.00,Wunderground v.1.15,2013-06-25 15:20:00,
2013-06-25 11:30:00,84.0,73.2,29.92,WNW,294,1.0,1.0,70,0.00,,,0.00,Wunderground v.1.15,2013-06-25 15:30:00,
2013-06-25 11:35:00,84.0,73.6,29.92,NW,311,1.0,1.0,71,0.00,,,0.00,Wunderground v.1.15,2013-06-25 15:35:00,
2013-06-25 11:45:00,84.7,74.3,29.91,SW,229,1.0,1.0,71,0.00,,,0.00,Wunderground v.1.15,2013-06-25 15:45:00,
2013-06-25 11:51:00,84.9,74.0,29.91,WSW,253,1.0,1.0,70,0.00,,,0.00,Wunderground v.1.15,2013-06-25 15:51:00,
2013-06-25 12:00:00,85.2,73.9,29.91,NE,38,1.0,1.0,69,0.00,,,0.00,Wunderground v.1.15,2013-06-25 16:00:00,
2013-06-25 12:05:00,85.5,74.2,29.90,NW,304,1.0,1.0,69,0.00,,,0.00,Wunderground v.1.15,2013-06-25 16:05:00,
2013-06-25 12:16:00,86.0,74.6,29.91,East,92,1.0,2.0,69,0.00,,,0.00,Wunderground v.1.15,2013-06-25 16:16:00,
2013-06-25 12:26:00,86.9,74.6,29.91,North,360,1.0,1.0,67,0.00,,,0.00,Wunderground v.1.15,2013-06-25 16:26:00,
2013-06-25 12:36:00,86.6,74.8,29.90,WNW,284,1.0,1.0,68,0.00,,,0.00,Wunderground v.1.15,2013-06-25 16:36:00,
2013-06-25 12:45:00,86.4,74.1,29.90,North,360,1.0,2.0,67,0.00,,,0.00,Wunderground v.1.15,2013-06-25 16:45:00,
2013-06-25 12:50:00,86.3,74.9,29.90,NNW,342,1.0,1.0,69,0.00,,,0.00,Wunderground v.1.15,2013-06-25 16:50:00,
2013-06-25 13:00:00,87.3,75.0,29.89,North,356,1.0,1.0,67,0.00,,,0.00,Wunderground v.1.15,2013-06-25 17:00:00,
2013-06-25 13:05:00,87.6,74.4,29.89,SW,224,1.0,1.0,65,0.00,,,0.00,Wunderground v.1.15,2013-06-25 17:05:00,
2013-06-25 13:15:00,88.1,74.4,29.89,NNW,341,1.0,1.0,64,0.00,,,0.00,Wunderground v.1.15,2013-06-25 17:15:00,
2013-06-25 13:21:00,88.4,74.7,29.88,North,359,1.0,2.0,64,0.00,,,0.00,Wunderground v.1.15,2013-06-25 17:21:00,
2013-06-25 13:30:00,89.7,76.4,29.87,West,269,0.0,1.0,65,0.00,,,0.00,Wunderground v.1.15,2013-06-25 17:30:00,
2013-06-25 13:35:00,90.2,73.9,29.87,NNW,339,1.0,3.0,59,0.00,,,0.00,Wunderground v.1.15,2013-06-25 17:35:00,
2013-06-25 13:45:00,91.0,75.2,29.86,SSE,159,1.0,1.0,60,0.00,,,0.00,Wunderground v.1.15,2013-06-25 17:45:00,
2013-06-25 13:50:00,91.4,73.5,29.86,ESE,120,1.0,1.0,56,0.00,,,0.00,Wunderground v.1.15,2013-06-25 17:50:00,
2013-06-25 14:01:00,91.8,74.4,29.86,ESE,120,0.0,1.0,57,0.00,,,0.00,Wunderground v.1.15,2013-06-25 18:01:00,
2013-06-25 14:11:00,91.1,73.7,29.86,NNE,30,0.0,1.0,57,0.00,,,0.00,Wunderground v.1.15,2013-06-25 18:11:00,
2013-06-25 14:20:00,91.1,75.3,29.86,WSW,249,0.0,1.0,60,0.00,,,0.00,Wunderground v.1.15,2013-06-25 18:20:00,
2013-06-25 14:30:00,90.4,73.6,29.85,SE,134,1.0,1.0,58,0.00,,,0.00,Wunderground v.1.15,2013-06-25 18:30:00,
2013-06-25 14:35:00,89.6,73.4,29.85,SE,125,1.0,1.0,59,0.00,,,0.00,Wunderground v.1.15,2013-06-25 18:35:00,
2013-06-25 14:45:00,88.5,71.8,29.85,East,100,1.0,1.0,58,0.00,,,0.00,Wunderground v.1.15,2013-06-25 18:45:00,
2013-06-25 14:50:00,89.0,74.3,29.84,South,188,0.0,1.0,62,0.00,,,0.00,Wunderground v.1.15,2013-06-25 18:50:00,
2013-06-25 14:56:00,89.7,73.0,29.84,East,82,1.0,1.0,58,0.00,,,0.00,Wunderground v.1.15,2013-06-25 18:56:00,
2013-06-25 15:06:00,89.7,72.4,29.84,NE,51,1.0,1.0,57,0.00,,,0.00,Wunderground v.1.15,2013-06-25 19:06:00,
2013-06-25 15:15:00,90.3,73.0,29.83,SE,136,1.0,1.0,57,0.00,,,0.00,Wunderground v.1.15,2013-06-25 19:15:00,
2013-06-25 15:20:00,90.2,72.4,29.83,SE,138,1.0,2.0,56,0.00,,,0.00,Wunderground v.1.15,2013-06-25 19:20:00,
2013-06-25 15:30:00,89.9,72.6,29.83,SSW,203,1.0,1.0,57,0.00,,,0.00,Wunderground v.1.15,2013-06-25 19:30:00,
2013-06-25 15:35:00,89.7,71.9,29.83,SSW,209,1.0,1.0,56,0.00,,,0.00,Wunderground v.1.15,2013-06-25 19:35:00,
2013-06-25 15:46:00,89.5,73.3,29.82,SE,142,1.0,1.0,59,0.00,,,0.00,Wunderground v.1.15,2013-06-25 19:46:00,
2013-06-25 15:55:00,89.1,73.9,29.82,South,184,1.0,2.0,61,0.00,,,0.00,Wunderground v.1.15,2013-06-25 19:55:00,
2013-06-25 16:05:00,88.7,74.0,29.81,NE,53,1.0,2.0,62,0.00,,,0.00,Wunderground v.1.15,2013-06-25 20:05:00,
2013-06-25 16:15:00,88.5,74.3,29.81,SE,125,1.0,1.0,63,0.00,,,0.00,Wunderground v.1.15,2013-06-25 20:15:00,
2013-06-25 16:20:00,88.3,74.1,29.81,SSW,201,2.0,2.0,63,0.00,,,0.00,Wunderground v.1.15,2013-06-25 20:20:00,
2013-06-25 16:31:00,88.1,74.8,29.80,SE,138,1.0,1.0,65,0.00,,,0.00,Wunderground v.1.15,2013-06-25 20:31:00,
2013-06-25 16:36:00,88.0,74.3,29.80,NE,40,1.0,1.0,64,0.00,,,0.00,Wunderground v.1.15,2013-06-25 20:36:00,
2013-06-25 16:45:00,87.7,74.0,29.80,NE,41,1.0,2.0,64,0.00,,,0.00,Wunderground v.1.15,2013-06-25 20:45:00,
2013-06-25 16:51:00,87.7,74.9,29.80,ENE,59,1.0,1.0,66,0.00,,,0.00,Wunderground v.1.15,2013-06-25 20:51:00,
2013-06-25 17:00:00,87.5,73.8,29.80,WSW,242,2.0,2.0,64,0.00,,,0.00,Wunderground v.1.15,2013-06-25 21:00:00,
2013-06-25 17:06:00,87.4,74.2,29.80,North,11,2.0,3.0,65,0.00,,,0.00,Wunderground v.1.15,2013-06-25 21:06:00,
2013-06-25 17:15:00,87.2,73.5,29.79,West,266,2.0,3.0,64,0.00,,,0.00,Wunderground v.1.15,2013-06-25 21:15:00,
2013-06-25 17:21:00,87.1,73.9,29.78,WSW,255,2.0,2.0,65,0.00,,,0.00,Wunderground v.1.15,2013-06-25 21:21:00,
2013-06-25 17:30:00,86.9,74.2,29.78,SE,125,1.0,1.0,66,0.00,,,0.00,Wunderground v.1.15,2013-06-25 21:30:00,
2013-06-25 17:36:00,86.6,73.4,29.77,SSE,166,1.0,1.0,65,0.00,,,0.00,Wunderground v.1.15,2013-06-25 21:36:00,
2013-06-25 17:45:00,86.3,73.6,29.78,SSE,152,1.0,6.0,66,0.00,,,0.00,Wunderground v.1.15,2013-06-25 21:45:00,
2013-06-25 17:51:00,85.7,73.0,29.78,SSE,163,1.0,1.0,66,0.00,,,0.00,Wunderground v.1.15,2013-06-25 21:51:00,
2013-06-25 18:00:00,84.9,72.7,29.78,South,179,1.0,1.0,67,0.00,,,0.00,Wunderground v.1.15,2013-06-25 22:00:00,
2013-06-25 18:05:00,84.6,72.4,29.78,WSW,242,1.0,1.0,67,0.00,,,0.00,Wunderground v.1.15,2013-06-25 22:05:00,
2013-06-25 18:15:00,83.9,72.6,29.77,ESE,114,0.0,1.0,69,0.00,,,0.00,Wunderground v.1.15,2013-06-25 22:15:00,
2013-06-25 18:20:00,83.6,72.8,29.77,SSE,165,0.0,1.0,70,0.00,,,0.00,Wunderground v.1.15,2013-06-25 22:20:00,
2013-06-25 18:30:00,83.7,73.3,29.77,SE,126,0.0,1.0,71,0.00,,,0.00,Wunderground v.1.15,2013-06-25 22:30:00,
2013-06-25 18:36:00,84.0,73.6,29.77,SE,127,0.0,1.0,71,0.00,,,0.00,Wunderground v.1.15,2013-06-25 22:36:00,
2013-06-25 18:45:00,84.3,73.4,29.77,ESE,108,0.0,1.0,70,0.00,,,0.00,Wunderground v.1.15,2013-06-25 22:45:00,
2013-06-25 18:50:00,84.4,73.1,29.77,SE,131,0.0,1.0,69,0.00,,,0.00,Wunderground v.1.15,2013-06-25 22:50:00,
2013-06-25 19:00:00,84.3,72.6,29.77,SW,236,0.0,1.0,68,0.00,,,0.00,Wunderground v.1.15,2013-06-25 23:00:00,
2013-06-25 19:05:00,84.2,72.5,29.77,ENE,58,0.0,1.0,68,0.00,,,0.00,Wunderground v.1.15,2013-06-25 23:05:00,
2013-06-25 19:16:00,83.9,72.2,29.77,East,93,0.0,1.0,68,0.00,,,0.00,Wunderground v.1.15,2013-06-25 23:16:00,
2013-06-25 19:26:00,83.9,71.3,29.77,SSE,160,1.0,2.0,66,0.00,,,0.00,Wunderground v.1.15,2013-06-25 23:26:00,
2013-06-25 19:35:00,83.9,70.4,29.77,North,11,1.0,1.0,64,0.00,,,0.00,Wunderground v.1.15,2013-06-25 23:35:00,
2013-06-25 19:45:00,84.0,70.0,29.77,ESE,114,1.0,1.0,63,0.00,,,0.00,Wunderground v.1.15,2013-06-25 23:45:00,
2013-06-25 19:50:00,83.9,70.0,29.77,NW,304,1.0,1.0,63,0.00,,,0.00,Wunderground v.1.15,2013-06-25 23:50:00,
2013-06-25 20:00:00,83.6,70.1,29.77,WNW,284,1.0,2.0,64,0.00,,,0.00,Wunderground v.1.15,2013-06-26 00:00:00,
2013-06-25 20:05:00,83.5,70.0,29.77,WSW,245,1.0,2.0,64,0.00,,,0.00,Wunderground v.1.15,2013-06-26 00:05:00,
2013-06-25 20:11:00,83.5,70.0,29.77,South,186,1.0,1.0,64,0.00,,,0.00,Wunderground v.1.15,2013-06-26 00:11:00,
2013-06-25 20:21:00,83.4,70.4,29.77,NE,39,1.0,2.0,65,0.00,,,0.00,Wunderground v.1.15,2013-06-26 00:21:00,
2013-06-25 20:30:00,83.2,70.2,29.77,NE,36,1.0,2.0,65,0.00,,,0.00,Wunderground v.1.15,2013-06-26 00:30:00,
2013-06-25 20:35:00,83.0,70.0,29.77,NE,39,1.0,2.0,65,0.00,,,0.00,Wunderground v.1.15,2013-06-26 00:35:00,
2013-06-25 20:45:00,82.5,70.4,29.77,NE,36,1.0,1.0,67,0.00,,,0.00,Wunderground v.1.15,2013-06-26 00:45:00,
2013-06-25 20:50:00,82.4,70.3,29.77,SSW,204,0.0,1.0,67,0.00,,,0.00,Wunderground v.1.15,2013-06-26 00:50:00,
2013-06-25 21:01:00,82.2,70.1,29.78,SE,128,1.0,1.0,67,0.00,,,0.00,Wunderground v.1.15,2013-06-26 01:01:00,
2013-06-25 21:06:00,82.1,70.5,29.78,NE,46,1.0,1.0,68,0.00,,,0.00,Wunderground v.1.15,2013-06-26 01:06:00,
2013-06-25 21:15:00,82.0,70.4,29.78,ESE,103,1.0,1.0,68,0.00,,,0.00,Wunderground v.1.15,2013-06-26 01:15:00,
2013-06-25 21:20:00,82.1,70.5,29.78,SE,133,1.0,1.0,68,0.00,,,0.00,Wunderground v.1.15,2013-06-26 01:20:00,
2013-06-25 21:30:00,82.0,70.4,29.78,SSE,158,1.0,1.0,68,0.00,,,0.00,Wunderground v.1.15,2013-06-26 01:30:00,
2013-06-25 21:35:00,81.9,70.3,29.78,North,349,1.0,1.0,68,0.00,,,0.00,Wunderground v.1.15,2013-06-26 01:35:00,
2013-06-25 21:46:00,81.6,70.4,29.79,NNW,331,1.0,3.0,69,0.00,,,0.00,Wunderground v.1.15,2013-06-26 01:46:00,
2013-06-25 21:56:00,81.7,70.1,29.79,North,6,1.0,1.0,68,0.00,,,0.00,Wunderground v.1.15,2013-06-26 01:56:00,
2013-06-25 22:05:00,81.9,69.9,29.79,NNE,15,2.0,2.0,67,0.00,,,0.00,Wunderground v.1.15,2013-06-26 02:05:00,
2013-06-25 22:16:00,82.0,69.5,29.80,SSE,149,2.0,4.0,66,0.00,,,0.00,Wunderground v.1.15,2013-06-26 02:16:00,
2013-06-25 22:26:00,81.7,69.2,29.80,SSE,158,1.0,2.0,66,0.00,,,0.00,Wunderground v.1.15,2013-06-26 02:26:00,
2013-06-25 22:35:00,81.6,69.1,29.80,WSW,255,1.0,2.0,66,0.00,,,0.00,Wunderground v.1.15,2013-06-26 02:35:00,
2013-06-25 22:45:00,81.6,69.1,29.80,East,92,2.0,2.0,66,0.00,,,0.00,Wunderground v.1.15,2013-06-26 02:45:00,
2013-06-25 22:50:00,81.4,68.9,29.80,NNW,346,1.0,1.0,66,0.00,,,0.00,Wunderground v.1.15,2013-06-26 02:50:00,
2013-06-25 23:00:00,81.2,69.2,29.80,South,190,1.0,2.0,67,0.00,,,0.00,Wunderground v.1.15,2013-06-26 03:00:00,
2013-06-25 23:05:00,81.1,69.1,29.80,NW,304,2.0,2.0,67,0.00,,,0.00,Wunderground v.1.15,2013-06-26 03:05:00,
2013-06-25 23:11:00,81.1,68.7,29.80,WNW,283,1.0,1.0,66,0.00,,,0.00,Wunderground v.1.15,2013-06-26 03:11:00,
2013-06-25 23:21:00,80.9,68.9,29.80,SE,127,1.0,1.0,67,0.00,,,0.00,Wunderground v.1.15,2013-06-26 03:21:00,
2013-06-25 23:30:00,80.7,68.7,29.80,SSE,149,1.0,1.0,67,0.00,,,0.00,Wunderground v.1.15,2013-06-26 03:30:00,
2013-06-25 23:35:00,80.6,68.6,29.80,ESE,118,0.0,1.0,67,0.00,,,0.00,Wunderground v.1.15,2013-06-26 03:35:00,
2013-06-25 23:45:00,80.1,68.6,29.80,SSE,159,0.0,1.0,68,0.00,,,0.00,Wunderground v.1.15,2013-06-26 03:45:00,
2013-06-25 23:50:00,79.8,68.7,29.80,SE,134,0.0,1.0,69,0.00,,,0.00,Wunderground v.1.15,2013-06-26 03:50:00,